Terminal Aerodrome Forecast
Issued by NWS

Home | Current Version | Previous Version | Text Only | Print | Product List | Glossary On
Versions: 1 2 3 4 5 6 7 8 9 10 11 12 13 14 15 16 17 18 19 20 21 22
000
FTUS43 KPAH 152300
TAFCGI
TAF
KCGI 152320Z 1600/1624 23004KT P6SM VCSH SCT030 BKN060
     FM160330 34005KT P6SM SCT007 OVC035
     FM160530 35006KT P6SM SCT006 OVC018
      TEMPO 1606/1610 4SM BR BKN006
     FM161030 01007KT P6SM SCT015
     FM162100 02005KT P6SM SKC=

USA.gov is the U.S. government's official web portal to all federal, state and local government web resources and services.